West Simsbury, Connecticut
Current Conditions -  °F | °C
As of 2:51 PM on Monday 22 Dec 2014 (Local Time) from KBDL Reporting Station
Broken Clouds Broken Clouds  
Wind Chill: 37°   Ceiling: 4400
Heat Index: 41°   Visibility: 10mi
Dew Point: 33°   Wind: 6mph
Humidity: 73%   Direction: 330°NNW
Pressure: 30.27"   Gusts: NA
Location:  41.87°N, 72.84°W
Report Text: KBDL 221951Z 33005KT 10SM FEW027 BKN044 05/01 A3027 RMK AO2 SLP251 T00500006
Loading
Personal Weather Stations






























Interactive Weather Map New forecast layout! Learn more

10-Day Weather Forecast

Advertisements
Track Severe Weather on mobile